Time;durP1;ratioP1;P1;durP2;ratioP2;P2;SDS_P1;SDS_P2;PMS_P1;PMS_P2;Temp;Humidity;BMP_temperature;BMP_pressure;BME280_temperature;BME280_humidity;BME280_pressure;Samples;Min_cycle;Max_cycle;Signal;HPM_P1;HPM_P2
2021/05/20 00:00:54;;;;;;;27.15;21.90;;;;;;;13.32;60.53;101931.09;4983975;28;113597;-67
2021/05/20 00:03:22;;;;;;;30.20;22.35;;;;;;;13.30;60.44;101930.28;4980904;28;123612;-66
2021/05/20 00:05:49;;;;;;;30.88;22.40;;;;;;;13.27;60.48;101938.34;4986988;28;123935;-66
2021/05/20 00:08:16;;;;;;;29.83;23.60;;;;;;;13.26;60.48;101933.97;4986557;28;114084;-66
2021/05/20 00:10:44;;;;;;;30.90;23.08;;;;;;;13.25;60.58;101940.19;4988194;28;114469;-67
2021/05/20 00:13:11;;;;;;;31.35;23.73;;;;;;;13.22;60.43;101937.63;4987007;28;123966;-66
2021/05/20 00:15:39;;;;;;;33.78;23.90;;;;;;;13.21;60.46;101946.56;4992371;28;122945;-67
2021/05/20 00:18:06;;;;;;;33.67;25.10;;;;;;;13.18;60.32;101944.00;4982375;28;115370;-67
2021/05/20 00:20:33;;;;;;;34.05;24.98;;;;;;;13.14;60.42;101942.41;4982533;28;115020;-67
2021/05/20 00:23:00;;;;;;;37.40;26.05;;;;;;;13.12;60.63;101946.91;4986804;28;124523;-67
2021/05/20 00:25:27;;;;;;;37.25;26.55;;;;;;;13.09;60.63;101947.03;4987838;28;125790;-66
2021/05/20 00:27:54;;;;;;;37.08;26.67;;;;;;;13.05;60.73;101952.47;4992162;28;114580;-67
2021/05/20 00:30:21;;;;;;;38.17;27.75;;;;;;;13.05;60.61;101952.47;4991037;28;114198;-66
2021/05/20 00:32:48;;;;;;;36.80;27.23;;;;;;;13.02;60.73;101952.56;4989958;28;124047;-66
2021/05/20 00:35:16;;;;;;;39.80;27.60;;;;;;;12.98;60.76;101950.97;4985676;28;123769;-67
2021/05/20 00:37:43;;;;;;;38.75;26.77;;;;;;;12.98;60.65;101953.63;4990934;28;114118;-67
2021/05/20 00:40:10;;;;;;;38.60;28.30;;;;;;;12.98;60.68;101953.63;4985604;28;114291;-67
2021/05/20 00:42:37;;;;;;;38.97;28.33;;;;;;;12.97;60.72;101953.69;4985909;28;124223;-66
2021/05/20 00:45:06;;;;;;;38.95;29.30;;;;;;;12.95;60.79;101951.06;4986994;28;124256;-67
2021/05/20 00:47:34;;;;;;;38.17;27.95;;;;;;;12.94;60.88;101949.34;4988033;28;115088;-67
2021/05/20 00:50:11;;;;;;;37.70;26.88;;;;;;;12.92;60.72;101950.31;4990161;28;114584;-67
2021/05/20 00:52:39;;;;;;;38.03;28.13;;;;;;;12.90;60.74;101942.38;4982850;28;124484;-66
2021/05/20 00:55:07;;;;;;;38.55;28.05;;;;;;;12.89;60.76;101951.31;4984687;28;122787;-66
2021/05/20 00:57:35;;;;;;;37.17;27.75;;;;;;;12.88;60.78;101949.56;4984295;28;114675;-67
2021/05/20 01:00:08;;;;;;;37.13;27.40;;;;;;;12.86;60.84;101951.41;4984982;28;113958;-66
2021/05/20 01:02:37;;;;;;;42.10;28.60;;;;;;;12.86;60.80;101951.41;4990369;28;124061;-67
2021/05/20 01:05:10;;;;;;;39.78;27.95;;;;;;;12.84;60.73;101953.25;4979047;28;124218;-71
2021/05/20 01:07:38;;;;;;;36.70;27.27;;;;;;;12.82;60.66;101961.28;4990039;28;115610;-67
2021/05/20 01:10:07;;;;;;;39.45;28.90;;;;;;;12.80;60.78;101959.63;4979054;28;114801;-67
2021/05/20 01:12:34;;;;;;;41.15;28.27;;;;;;;12.78;60.67;101958.81;4984072;28;124877;-67
2021/05/20 01:15:01;;;;;;;38.92;28.75;;;;;;;12.76;60.67;101958.84;4982549;28;123921;-66
2021/05/20 01:17:29;;;;;;;40.85;28.25;;;;;;;12.75;60.60;101958.91;4982735;28;114643;-66
2021/05/20 01:19:56;;;;;;;41.28;29.67;;;;;;;12.73;60.82;101961.59;4977450;28;114574;-67
2021/05/20 01:22:23;;;;;;;41.55;30.25;;;;;;;12.71;60.75;101962.59;4987503;28;123502;-67
2021/05/20 01:24:52;;;;;;;41.75;30.15;;;;;;;12.66;60.55;101965.44;4985874;28;123720;-67
2021/05/20 01:27:19;;;;;;;43.10;30.27;;;;;;;12.64;60.75;101968.16;4987039;28;114303;-66
2021/05/20 01:29:46;;;;;;;41.35;29.83;;;;;;;12.60;60.60;101971.84;4984833;28;114380;-66
2021/05/20 01:32:13;;;;;;;46.75;31.17;;;;;;;12.59;60.67;101988.69;4985596;28;123971;-67
2021/05/20 01:34:40;;;;;;;43.90;31.52;;;;;;;12.56;60.68;101980.81;4981456;28;125666;-66
2021/05/20 01:37:09;;;;;;;44.85;33.10;;;;;;;12.53;60.63;101980.09;4988839;28;114070;-66
2021/05/20 01:39:37;;;;;;;47.13;32.70;;;;;;;12.51;60.86;101980.13;4985131;28;114407;-66
2021/05/20 01:42:05;;;;;;;47.60;32.13;;;;;;;12.47;60.76;101970.53;4987142;28;123820;-67
2021/05/20 01:44:32;;;;;;;52.70;35.03;;;;;;;12.46;60.70;101976.75;4988075;28;123817;-66
2021/05/20 01:46:59;;;;;;;46.42;32.95;;;;;;;12.44;60.85;101981.25;4984937;28;114138;-66
2021/05/20 01:49:27;;;;;;;49.13;32.97;;;;;;;12.41;60.97;101981.34;4983056;28;114062;-66
2021/05/20 01:51:54;;;;;;;52.92;36.05;;;;;;;12.40;61.02;101979.63;4980593;28;122923;-67
2021/05/20 01:54:21;;;;;;;50.72;34.88;;;;;;;12.38;61.06;101992.09;4981162;28;124182;-67
2021/05/20 01:56:49;;;;;;;49.78;33.75;;;;;;;12.37;61.04;101985.03;4983433;28;115597;-66
2021/05/20 01:59:16;;;;;;;53.97;35.90;;;;;;;12.36;61.10;101988.63;4980039;28;115063;-66
2021/05/20 02:01:43;;;;;;;50.38;34.55;;;;;;;12.34;61.15;101979.81;4986554;28;123052;-67
2021/05/20 02:04:10;;;;;;;50.30;33.17;;;;;;;12.34;61.05;101985.13;4988012;28;123830;-73
2021/05/20 02:06:38;;;;;;;50.10;34.22;;;;;;;12.32;60.95;101981.66;4990347;28;115223;-66
2021/05/20 02:09:06;;;;;;;48.20;33.67;;;;;;;12.30;60.91;101987.06;4983368;28;114354;-67
2021/05/20 02:11:34;;;;;;;52.50;35.65;;;;;;;12.29;61.04;101993.28;4981558;28;123719;-66
2021/05/20 02:14:01;;;;;;;52.55;35.58;;;;;;;12.27;60.80;101998.63;4974231;28;125690;-66
2021/05/20 02:16:28;;;;;;;50.97;35.17;;;;;;;12.25;60.90;101997.81;4984015;28;114048;-66
2021/05/20 02:18:55;;;;;;;51.33;35.80;;;;;;;12.24;60.89;101996.09;4980771;28;113297;-66
2021/05/20 02:21:22;;;;;;;52.38;35.50;;;;;;;12.21;60.95;101985.56;4976436;28;124352;-66
2021/05/20 02:23:49;;;;;;;52.08;35.03;;;;;;;12.19;61.04;101987.41;4990271;28;123908;-66
2021/05/20 02:26:17;;;;;;;50.33;35.28;;;;;;;12.17;61.17;101988.38;4983520;28;114340;-66
2021/05/20 02:28:44;;;;;;;55.33;36.58;;;;;;;12.15;60.98;101987.53;4982529;28;114204;-66
2021/05/20 02:31:11;;;;;;;52.22;36.63;;;;;;;12.13;61.10;101995.59;4982123;28;124079;-67
2021/05/20 02:33:39;;;;;;;55.40;36.05;;;;;;;12.11;61.08;101994.78;4981252;28;122984;-66
2021/05/20 02:36:06;;;;;;;60.80;37.13;;;;;;;12.10;61.17;101987.72;4986645;28;114278;-66
2021/05/20 02:38:33;;;;;;;55.47;36.67;;;;;;;12.08;61.00;101994.88;4978473;28;114381;-66
2021/05/20 02:41:00;;;;;;;56.33;35.63;;;;;;;12.07;60.98;102004.63;4980688;28;123813;-66
2021/05/20 02:43:28;;;;;;;59.60;37.95;;;;;;;12.05;61.31;102000.25;4982125;28;123804;-66
2021/05/20 02:45:55;;;;;;;56.03;37.63;;;;;;;12.04;61.08;102003.84;4977264;28;115143;-66
2021/05/20 02:48:22;;;;;;;55.95;35.90;;;;;;;12.03;61.11;101994.13;4978932;28;115055;-66
2021/05/20 02:50:49;;;;;;;55.25;36.10;;;;;;;12.02;61.03;101995.06;4986308;28;123042;-66
2021/05/20 02:53:16;;;;;;;57.03;36.65;;;;;;;12.01;61.00;101988.00;4981244;28;123661;-66
2021/05/20 02:55:43;;;;;;;57.97;36.78;;;;;;;12.00;60.94;101986.28;4977360;28;114647;-66
2021/05/20 02:58:14;;;;;;;59.15;37.90;;;;;;;11.98;61.22;101988.09;4980596;28;114672;-67
2021/05/20 03:00:41;;;;;;;66.72;38.83;;;;;;;11.96;61.14;101989.94;4983243;28;123966;-66
2021/05/20 03:03:08;;;;;;;78.20;37.78;;;;;;;11.93;61.08;101990.06;4983224;28;124229;-66
2021/05/20 03:05:35;;;;;;;63.70;35.42;;;;;;;11.91;61.28;101997.22;4988431;28;114658;-66
2021/05/20 03:08:02;;;;;;;90.53;35.88;;;;;;;11.91;61.13;101997.22;4989743;28;114748;-66
2021/05/20 03:10:29;;;;;;;95.70;38.40;;;;;;;11.88;61.38;101999.00;4985100;28;123836;-66
2021/05/20 03:12:56;;;;;;;62.58;36.08;;;;;;;11.88;61.37;102004.31;4981381;28;123976;-66
2021/05/20 03:15:24;;;;;;;123.75;38.42;;;;;;;11.88;61.44;101998.13;4976803;28;114321;-66
2021/05/20 03:17:51;;;;;;;82.82;37.45;;;;;;;11.88;61.38;102000.78;4983370;28;114377;-68
2021/05/20 03:20:19;;;;;;;62.38;37.70;;;;;;;11.87;61.63;101991.09;4981133;28;124654;-66
2021/05/20 03:22:47;;;;;;;85.95;39.03;;;;;;;11.88;61.71;101999.00;4980656;28;123918;-66
2021/05/20 03:25:16;;;;;;;75.38;38.97;;;;;;;11.88;61.84;102001.66;4982247;28;114534;-66
2021/05/20 03:27:43;;;;;;;95.22;38.70;;;;;;;11.91;61.74;101997.22;4978829;28;114761;-66
2021/05/20 03:30:12;;;;;;;77.78;36.63;;;;;;;11.91;61.87;101997.22;4984871;28;124752;-66
2021/05/20 03:32:39;;;;;;;79.47;37.67;;;;;;;11.93;61.90;101995.38;4999104;28;123495;-66
2021/05/20 03:35:07;;;;;;;114.40;39.15;;;;;;;11.95;62.26;101996.19;4984390;28;115418;-66
2021/05/20 03:37:36;;;;;;;177.73;39.83;;;;;;;11.97;61.95;101997.00;4983236;28;115292;-66
2021/05/20 03:40:22;;;;;;;84.20;38.00;;;;;;;11.99;62.21;101995.16;4986079;28;124644;-66
2021/05/20 03:42:49;;;;;;;173.60;42.67;;;;;;;11.98;62.37;101998.72;4984245;28;124064;-66
2021/05/20 03:45:16;;;;;;;73.07;40.22;;;;;;;12.00;62.21;102003.09;4988690;28;115064;-66
2021/05/20 03:47:43;;;;;;;171.05;42.03;;;;;;;12.03;62.51;102002.09;4987320;28;114262;-65
2021/05/20 03:50:11;;;;;;;277.35;46.72;;;;;;;12.07;62.42;101993.09;4989346;28;123398;-66
2021/05/20 03:52:38;;;;;;;259.08;42.30;;;;;;;12.10;62.40;101997.47;4988524;28;123303;-65
2021/05/20 03:55:05;;;;;;;225.30;41.67;;;;;;;12.13;62.36;101998.25;4980228;28;114266;-65
2021/05/20 03:57:33;;;;;;;217.65;40.28;;;;;;;12.15;62.46;102001.72;4980401;28;114193;-65
2021/05/20 04:00:03;;;;;;;338.75;42.50;;;;;;;12.18;62.56;102011.34;4978394;28;124818;-65
2021/05/20 04:02:31;;;;;;;157.77;39.92;;;;;;;12.18;62.53;102011.34;4985970;28;123931;-66
2021/05/20 04:04:58;;;;;;;284.42;43.58;;;;;;;12.19;62.74;102013.97;4986798;28;115127;-65
2021/05/20 04:07:27;;;;;;;150.88;40.58;;;;;;;12.20;62.34;102010.38;4988198;28;113459;-66
2021/05/20 04:09:54;;;;;;;204.68;42.33;;;;;;;12.21;62.50;102006.81;4993663;28;123875;-66
2021/05/20 04:12:22;;;;;;;215.25;40.58;;;;;;;12.24;62.72;101996.09;4981344;28;124622;-66
2021/05/20 04:14:49;;;;;;;282.77;42.50;;;;;;;12.26;62.64;102002.22;4982343;28;114265;-66
2021/05/20 04:17:16;;;;;;;156.93;42.10;;;;;;;12.30;62.86;101999.44;4986516;28;114207;-66
2021/05/20 04:19:43;;;;;;;137.93;41.20;;;;;;;12.33;62.70;102004.66;4984524;28;123506;-65
2021/05/20 04:22:10;;;;;;;220.13;42.60;;;;;;;12.33;62.84;101997.56;4990954;28;124116;-65
2021/05/20 04:24:37;;;;;;;367.60;46.03;;;;;;;12.37;62.88;102000.97;4983871;28;115295;-65
2021/05/20 04:27:05;;;;;;;326.63;46.42;;;;;;;12.40;62.80;102000.88;4984338;28;114998;-66
2021/05/20 04:29:32;;;;;;;233.93;43.15;;;;;;;12.41;62.73;102005.25;4991844;28;124056;-66
2021/05/20 04:31:59;;;;;;;294.30;43.97;;;;;;;12.41;62.91;102013.22;4990934;28;123769;-65
2021/05/20 04:34:26;;;;;;;358.48;48.47;;;;;;;12.44;63.02;102013.16;4989288;28;114671;-66
2021/05/20 04:36:53;;;;;;;176.30;45.30;;;;;;;12.46;63.06;102012.16;4985297;28;114172;-66
2021/05/20 04:39:21;;;;;;;193.65;43.25;;;;;;;12.49;62.89;102005.91;4985815;28;124169;-66
2021/05/20 04:41:48;;;;;;;257.10;41.55;;;;;;;12.51;62.93;102013.78;4989239;28;124095;-66
2021/05/20 04:44:15;;;;;;;174.15;42.78;;;;;;;12.53;63.07;102018.16;4988392;28;115103;-66
2021/05/20 04:46:42;;;;;;;205.07;44.97;;;;;;;12.53;62.95;102012.84;4988860;28;114375;-65
2021/05/20 04:49:12;;;;;;;164.93;42.17;;;;;;;12.54;62.83;102014.56;4983870;28;124123;-66
2021/05/20 04:51:40;;;;;;;195.43;43.22;;;;;;;12.54;62.90;102014.56;4984909;28;124475;-65
2021/05/20 04:54:07;;;;;;;330.17;45.58;;;;;;;12.54;63.07;102009.25;4989729;28;115410;-65
2021/05/20 04:56:35;;;;;;;285.58;43.03;;;;;;;12.56;62.90;102018.03;4987063;28;113036;-65
2021/05/20 04:59:03;;;;;;;242.73;41.47;;;;;;;12.58;62.81;102010.91;4985334;28;124088;-65
2021/05/20 05:01:32;;;;;;;373.98;44.08;;;;;;;12.59;63.14;102012.63;4988784;28;121932;-66
2021/05/20 05:03:59;;;;;;;213.48;43.70;;;;;;;12.63;62.92;102018.69;4989794;28;114314;-65
2021/05/20 05:06:26;;;;;;;303.98;40.97;;;;;;;12.64;62.96;102015.97;4989673;28;114329;-65
2021/05/20 05:08:54;;;;;;;175.93;36.95;;;;;;;12.65;63.05;102012.38;4985018;28;124123;-66
2021/05/20 05:11:21;;;;;;;415.80;42.90;;;;;;;12.69;63.13;102012.28;4979496;28;124132;-66
2021/05/20 05:13:48;;;;;;;307.10;42.53;;;;;;;12.71;63.09;102015.75;4985788;28;115272;-66
2021/05/20 05:16:15;;;;;;;300.92;40.65;;;;;;;12.73;63.11;102019.22;4967442;28;115094;-66
2021/05/20 05:18:42;;;;;;;503.17;46.00;;;;;;;12.75;62.90;102022.69;4987686;28;124113;-65
2021/05/20 05:21:10;;;;;;;323.98;43.53;;;;;;;12.74;63.03;102020.97;4991414;28;123962;-66
2021/05/20 05:23:38;;;;;;;315.77;42.53;;;;;;;12.74;63.11;102026.31;4985097;28;114623;-66
2021/05/20 05:26:05;;;;;;;284.70;43.78;;;;;;;12.76;63.29;102025.31;4981308;28;113976;-66
2021/05/20 05:28:32;;;;;;;276.77;42.40;;;;;;;12.79;63.14;102019.91;4986781;28;123921;-66
2021/05/20 05:31:00;;;;;;;241.70;39.38;;;;;;;12.80;63.14;102021.63;4980502;28;124221;-66
2021/05/20 05:33:27;;;;;;;252.55;38.30;;;;;;;12.81;63.05;102019.84;4991228;28;113774;-66
2021/05/20 05:35:54;;;;;;;141.80;37.17;;;;;;;12.79;62.82;102024.31;4988339;28;113615;-68
2021/05/20 05:38:21;;;;;;;299.08;41.08;;;;;;;12.77;63.07;102026.16;4988847;28;124497;-66
2021/05/20 05:40:48;;;;;;;177.27;39.60;;;;;;;12.78;63.12;102033.25;5000351;22;122835;-68
2021/05/20 05:43:15;;;;;;;274.23;39.50;;;;;;;12.80;63.14;102034.06;4988709;28;114367;-69
2021/05/20 05:45:42;;;;;;;231.88;37.70;;;;;;;12.80;63.20;102042.88;4991218;28;114051;-67
2021/05/20 05:48:12;;;;;;;221.25;38.13;;;;;;;12.81;63.03;102043.78;4991495;28;124153;-66
2021/05/20 05:50:40;;;;;;;119.10;38.20;;;;;;;12.82;63.08;102050.81;4988972;28;124336;-66
2021/05/20 05:53:26;;;;;;;111.78;36.65;;;;;;;12.85;63.01;102045.41;4985240;28;114331;-67
2021/05/20 05:55:53;;;;;;;184.70;40.08;;;;;;;12.88;63.05;102055.03;4990578;28;113914;-68
2021/05/20 05:58:21;;;;;;;205.27;38.95;;;;;;;12.90;63.30;102048.75;4991322;28;124361;-68
2021/05/20 06:00:48;;;;;;;220.20;39.70;;;;;;;12.91;63.14;102045.16;4998122;28;124209;-68
2021/05/20 06:03:15;;;;;;;104.25;36.47;;;;;;;12.92;63.13;102046.94;4989688;28;115282;-67
2021/05/20 06:05:49;;;;;;;184.65;36.30;;;;;;;12.92;63.28;102046.94;4990390;28;113827;-68
2021/05/20 06:08:16;;;;;;;87.50;35.20;;;;;;;12.91;63.02;102050.50;4987323;28;123051;-68
2021/05/20 06:10:44;;;;;;;210.40;35.88;;;;;;;12.91;62.99;102039.84;4992910;28;123742;-68
2021/05/20 06:13:12;;;;;;;135.15;35.10;;;;;;;12.90;63.26;102038.09;4992280;28;114158;-68
2021/05/20 06:15:39;;;;;;;209.32;36.05;;;;;;;12.94;63.44;102039.75;4991687;28;113403;-68
2021/05/20 06:18:07;;;;;;;185.98;35.90;;;;;;;12.95;63.23;102046.78;5007445;28;123425;-68
2021/05/20 06:20:34;;;;;;;119.70;35.22;;;;;;;12.95;63.33;102046.78;4991289;28;123081;-68
2021/05/20 06:23:01;;;;;;;169.63;35.05;;;;;;;12.97;63.20;102050.25;4996920;28;114849;-68
2021/05/20 06:25:29;;;;;;;99.55;33.83;;;;;;;12.98;63.37;102046.69;4987761;28;113861;-68
2021/05/20 06:27:56;;;;;;;86.45;34.33;;;;;;;12.99;63.15;102058.19;5002523;28;124389;-68
2021/05/20 06:30:23;;;;;;;73.28;34.65;;;;;;;13.00;63.23;102071.44;5005376;28;123975;-67
2021/05/20 06:32:50;;;;;;;117.68;33.88;;;;;;;13.04;63.37;102066.88;5002844;28;112797;-67
2021/05/20 06:35:17;;;;;;;180.68;37.10;;;;;;;13.06;63.10;102059.72;4987747;28;114615;-67
2021/05/20 06:37:44;;;;;;;114.93;35.53;;;;;;;13.10;63.15;102076.44;4999768;28;124388;-67
2021/05/20 06:40:12;;;;;;;117.43;35.15;;;;;;;13.12;63.26;102066.59;4986601;28;124048;-67
2021/05/20 06:42:39;;;;;;;115.63;34.58;;;;;;;13.13;62.98;102073.66;5002552;28;114213;-67
2021/05/20 06:45:07;;;;;;;120.68;34.55;;;;;;;13.14;63.05;102081.56;4988288;28;114621;-68
2021/05/20 06:47:34;;;;;;;71.05;33.58;;;;;;;13.15;63.24;102085.13;4988640;28;123731;-68
2021/05/20 06:50:01;;;;;;;96.43;37.20;;;;;;;13.17;63.10;102077.97;4985317;28;123322;-68
2021/05/20 06:52:28;;;;;;;110.57;35.83;;;;;;;13.19;63.21;102081.44;5001518;28;115054;-68
2021/05/20 06:54:55;;;;;;;73.72;36.58;;;;;;;13.20;63.18;102077.81;5005316;28;114847;-68
2021/05/20 06:59:56;;;;;;;106.85;40.30;;;;;;;13.20;63.13;102083.16;4993203;28;122329;-68
2021/05/20 07:00:18;;;;;;;97.25;44.90;;;;;;;13.21;63.16;102080.44;4994948;28;122724;-68
2021/05/20 07:02:46;;;;;;;103.63;44.08;;;;;;;13.25;63.24;102075.88;4983101;28;113798;-68
2021/05/20 07:05:14;;;;;;;99.00;43.47;;;;;;;13.29;63.32;102074.84;4977218;28;113878;-68
2021/05/20 07:07:42;;;;;;;89.55;41.65;;;;;;;13.34;63.50;102082.69;5002009;28;124253;-68
2021/05/20 07:10:10;;;;;;;96.47;42.85;;;;;;;13.38;63.33;102082.50;4996761;28;124120;-68
2021/05/20 07:12:37;;;;;;;91.47;42.78;;;;;;;13.42;63.28;102084.13;4988341;28;113830;-68
2021/05/20 07:15:05;;;;;;;99.93;45.13;;;;;;;13.46;63.25;102084.88;4987640;28;113788;-68
2021/05/20 07:17:32;;;;;;;102.18;45.90;;;;;;;13.49;63.34;102089.25;4987341;28;124361;-67
2021/05/20 07:19:59;;;;;;;110.75;48.05;;;;;;;13.53;63.53;102090.88;4981461;28;124794;-68
2021/05/20 07:22:28;;;;;;;109.20;47.83;;;;;;;13.58;63.57;102094.19;4977676;28;114257;-68
2021/05/20 07:24:55;;;;;;;114.93;48.20;;;;;;;13.64;63.43;102099.31;4980523;28;114811;-68
2021/05/20 07:27:22;;;;;;;117.90;49.10;;;;;;;13.70;63.48;102100.88;4980716;28;124743;-68
2021/05/20 07:29:49;;;;;;;108.05;50.00;;;;;;;13.75;63.57;102097.13;4980039;28;123832;-68
2021/05/20 07:32:18;;;;;;;106.97;48.15;;;;;;;13.80;63.50;102092.47;4981148;28;114648;-69
2021/05/20 07:34:46;;;;;;;89.60;44.05;;;;;;;13.85;63.50;102086.13;4979151;28;114265;-68
2021/05/20 07:37:13;;;;;;;76.47;42.33;;;;;;;13.89;63.22;102087.72;5000734;28;123302;-68
2021/05/20 07:39:40;;;;;;;85.38;43.10;;;;;;;13.90;63.04;102078.78;4975061;28;123949;-69
2021/05/20 07:42:07;;;;;;;80.22;42.58;;;;;;;13.91;63.04;102077.88;4974468;28;115874;-69
2021/05/20 07:44:36;;;;;;;86.80;43.17;;;;;;;13.93;62.93;102084.00;4978639;28;115303;-69
2021/05/20 07:47:03;;;;;;;76.07;41.63;;;;;;;13.97;63.06;102080.28;5003880;28;124944;-68
2021/05/20 07:49:32;;;;;;;71.57;40.90;;;;;;;14.01;63.13;102081.91;4985386;28;124717;-69
2021/05/20 07:51:59;;;;;;;64.00;38.38;;;;;;;14.03;63.02;102080.03;4977369;28;115017;-69
2021/05/20 07:54:26;;;;;;;61.88;37.92;;;;;;;14.05;62.84;102078.19;4979341;28;114455;-68
2021/05/20 07:56:53;;;;;;;67.65;38.35;;;;;;;14.09;63.15;102079.81;4996621;28;124203;-68
2021/05/20 07:59:20;;;;;;;56.85;35.92;;;;;;;14.14;62.98;102083.13;4974540;28;124150;-68
2021/05/20 08:04:47;;;;;;;52.90;33.58;;;;;;;14.19;62.79;102085.63;4969082;28;114777;-68
2021/05/20 08:12:48;;;;;;;45.38;30.90;;;;;;;14.21;62.42;102079.31;4940720;28;114478;-68
2021/05/20 08:15:16;;;;;;;46.03;29.67;;;;;;;14.25;62.53;102079.19;4988952;28;113444;-67
2021/05/20 08:17:43;;;;;;;42.13;29.58;;;;;;;14.28;62.38;102084.38;5004330;28;124156;-67
2021/05/20 08:20:10;;;;;;;40.63;27.20;;;;;;;14.31;62.54;102073.59;4979721;28;123824;-67
2021/05/20 08:22:38;;;;;;;34.08;25.73;;;;;;;14.38;62.68;102064.44;4978775;28;113935;-68
2021/05/20 08:25:07;;;;;;;33.28;25.85;;;;;;;14.46;62.63;102072.09;4974703;28;113128;-68
2021/05/20 08:27:34;;;;;;;35.95;26.02;;;;;;;14.56;62.54;102068.13;4991678;28;124704;-70
2021/05/20 08:30:02;;;;;;;34.20;26.23;;;;;;;14.65;62.65;102067.75;4987088;28;124141;-67
2021/05/20 08:32:30;;;;;;;36.25;26.35;;;;;;;14.74;62.60;102072.69;5003685;28;115308;-68
2021/05/20 08:34:57;;;;;;;34.33;26.20;;;;;;;14.81;62.36;102068.00;4989158;28;114950;-68
2021/05/20 08:37:24;;;;;;;38.45;26.42;;;;;;;14.86;62.29;102060.66;4986696;28;124703;-68
2021/05/20 08:39:52;;;;;;;35.20;26.65;;;;;;;14.93;62.40;102056.75;5001909;28;123057;-67
2021/05/20 08:42:19;;;;;;;36.85;27.52;;;;;;;15.03;62.38;102056.34;4999493;28;112496;-68
2021/05/20 08:44:46;;;;;;;42.00;27.45;;;;;;;15.10;62.31;102044.50;4983881;28;114149;-68
2021/05/20 08:47:13;;;;;;;36.53;27.45;;;;;;;15.18;61.92;102039.66;4983692;28;125209;-67
2021/05/20 08:49:44;;;;;;;37.22;26.67;;;;;;;15.25;61.91;102043.78;4981376;28;124030;-68
2021/05/20 08:52:13;;;;;;;42.90;28.05;;;;;;;15.29;61.75;102042.72;4979484;28;114677;-68
2021/05/20 08:54:48;;;;;;;40.75;28.58;;;;;;;15.34;61.39;102045.19;4979836;28;113434;-67
2021/05/20 08:57:15;;;;;;;43.95;29.90;;;;;;;15.36;61.29;102044.16;4980224;28;124096;-68
2021/05/20 08:59:42;;;;;;;44.25;29.85;;;;;;;15.43;61.18;102038.56;4982632;28;124231;-69
2021/05/20 09:02:21;;;;;;;44.10;29.92;;;;;;;15.48;61.21;102036.53;4981266;28;113593;-68
2021/05/20 09:05:00;;;;;;;47.33;30.65;;;;;;;15.55;61.29;102032.63;4990389;28;114167;-68
2021/05/20 09:07:34;;;;;;;48.40;31.25;;;;;;;15.62;61.14;102028.75;4982350;28;124018;-70
2021/05/20 09:10:08;;;;;;;46.80;31.45;;;;;;;15.71;60.73;102022.97;4987101;28;123276;-71
2021/05/20 09:12:35;;;;;;;45.40;29.77;;;;;;;15.81;61.08;102025.25;4991546;28;113779;-70
2021/05/20 09:15:15;;;;;;;45.72;30.95;;;;;;;15.89;60.67;102028.38;4984031;28;113259;-70
2021/05/20 09:17:43;;;;;;;51.80;32.72;;;;;;;15.97;60.30;102012.84;4990206;28;123680;-69
2021/05/20 09:20:10;;;;;;;50.92;33.47;;;;;;;16.03;60.30;102017.91;4979473;28;124526;-69
2021/05/20 09:22:38;;;;;;;55.80;34.53;;;;;;;16.09;60.32;102028.28;5003318;28;115787;-69
2021/05/20 09:25:07;;;;;;;59.35;37.05;;;;;;;16.12;59.87;102028.16;4992160;28;115806;-68
2021/05/20 09:27:37;;;;;;;61.17;38.70;;;;;;;16.17;59.62;102030.56;4993344;28;125217;-69
2021/05/20 09:30:22;;;;;;;64.97;39.55;;;;;;;16.18;59.61;102026.09;5007063;28;123780;-69
2021/05/20 09:32:57;;;;;;;64.72;39.88;;;;;;;16.22;59.53;102038.34;4978993;28;113769;-70
2021/05/20 09:35:49;;;;;;;70.28;42.85;;;;;;;16.24;59.36;102028.47;4996510;28;115130;-69
2021/05/20 09:38:21;;;;;;;71.50;42.10;;;;;;;16.27;58.95;102031.84;5008772;28;122887;-69
2021/05/20 09:40:56;;;;;;;77.13;45.05;;;;;;;16.29;58.99;102034.44;4993655;28;124613;-69
2021/05/20 09:43:30;;;;;;;;;;;;;;;16.33;59.52;102036.00;4998911;28;114070;-68
2021/05/20 09:46:18;;;;;;;74.80;44.80;;;;;;;16.40;59.16;102032.09;4993821;28;112806;-68
2021/05/20 09:48:48;;;;;;;76.85;45.42;;;;;;;16.45;58.85;102030.06;5006509;28;122010;-69
2021/05/20 09:51:27;;;;;;;84.28;48.05;;;;;;;16.48;58.75;102035.25;4991715;28;123964;-69
2021/05/20 09:53:56;;;;;;;78.85;45.45;;;;;;;16.51;58.87;102027.06;4989602;28;114083;-68
2021/05/20 09:56:34;;;;;;;78.28;47.78;;;;;;;16.55;59.04;102025.09;5006079;28;114607;-68
2021/05/20 09:59:01;;;;;;;81.25;47.88;;;;;;;16.62;59.08;102020.31;4991447;28;123408;-68
2021/05/20 10:01:29;;;;;;;80.65;45.47;;;;;;;16.71;59.22;102025.19;5006545;28;122673;-70
2021/05/20 10:03:57;;;;;;;73.68;45.70;;;;;;;16.79;58.95;102017.63;5003416;28;113886;-69
2021/05/20 10:06:38;;;;;;;74.38;46.25;;;;;;;16.88;59.01;102011.81;4989188;28;115020;-69
2021/05/20 10:09:08;;;;;;;69.80;45.13;;;;;;;17.00;58.73;102004.09;4989138;28;123157;-69
2021/05/20 10:11:37;;;;;;;74.97;46.45;;;;;;;17.11;58.81;102001.69;4979425;28;122977;-69
2021/05/20 10:14:05;;;;;;;71.47;45.80;;;;;;;17.26;59.18;102000.00;4976647;28;115175;-69
2021/05/20 10:16:33;;;;;;;66.57;44.42;;;;;;;17.45;59.20;101991.81;4987583;28;115068;-69
2021/05/20 10:19:01;;;;;;;67.45;44.90;;;;;;;17.65;59.31;101986.19;4986300;28;125002;-69
2021/05/20 10:21:32;;;;;;;67.68;44.63;;;;;;;17.83;58.82;101978.06;4993621;28;123096;-69
2021/05/20 10:23:59;;;;;;;62.75;43.58;;;;;;;17.98;57.87;101982.56;4983941;28;115014;-68
2021/05/20 10:26:26;;;;;;;63.22;43.60;;;;;;;18.08;57.83;101974.84;4999722;28;112483;-70
2021/05/20 10:28:53;;;;;;;60.70;42.45;;;;;;;18.17;56.98;101976.13;4975238;28;124264;-69
2021/05/20 10:31:22;;;;;;;56.92;40.00;;;;;;;18.22;56.36;101968.69;4983322;28;123825;-69
2021/05/20 10:33:49;;;;;;;55.45;39.40;;;;;;;18.27;56.43;101955.84;5003240;28;113233;-68
2021/05/20 10:36:24;;;;;;;55.35;39.33;;;;;;;18.27;56.23;101950.47;4981697;28;114436;-68
2021/05/20 10:38:52;;;;;;;;;;;;;;;18.30;56.77;101942.25;4983133;28;124060;-68
2021/05/20 10:41:22;;;;;;;54.97;38.85;;;;;;;18.43;56.34;101951.28;4983959;28;124068;-69
2021/05/20 10:44:06;;;;;;;45.67;35.50;;;;;;;18.53;56.08;101940.00;4986032;28;113153;-69
2021/05/20 10:47:02;;;;;;;46.38;33.97;;;;;;;18.64;56.08;101932.16;4972938;28;114250;-69
2021/05/20 10:49:52;;;;;;;39.72;31.20;;;;;;;18.77;55.72;101927.75;4983787;28;124386;-68
2021/05/20 10:52:34;;;;;;;36.00;28.27;;;;;;;18.89;55.05;101930.66;4982590;28;124584;-69
2021/05/20 10:55:05;;;;;;;39.83;30.27;;;;;;;19.02;54.56;101915.50;4985406;28;113247;-69
2021/05/20 10:57:57;;;;;;;35.38;28.98;;;;;;;19.12;54.75;101915.75;4985801;28;114260;-69
2021/05/20 11:00:30;;;;;;;35.28;27.17;;;;;;;19.24;53.68;101904.25;4981205;28;122918;-69
2021/05/20 11:02:59;;;;;;;32.00;26.60;;;;;;;19.32;52.98;101906.44;4988696;28;123234;-69
2021/05/20 11:05:41;;;;;;;32.10;25.33;;;;;;;19.39;53.29;101902.38;4990891;28;115804;-69
2021/05/20 11:08:28;;;;;;;26.90;22.02;;;;;;;19.52;52.36;101903.31;4987644;28;115346;-69
2021/05/20 11:10:56;;;;;;;27.42;22.80;;;;;;;19.65;51.82;101898.84;5003769;28;123994;-69
2021/05/20 11:13:40;;;;;;;27.70;22.27;;;;;;;19.75;51.37;101892.88;4989897;28;123944;-69
2021/05/20 11:16:33;;;;;;;28.88;22.08;;;;;;;19.88;51.65;101876.78;4989693;28;113364;-70